createdAt,value
2016-07-20T00:00:10.919Z,14.02
2016-07-20T00:01:10.920Z,13.95
2016-07-20T00:02:11.167Z,14.09
2016-07-20T00:03:10.995Z,14.08
2016-07-20T00:04:10.940Z,14.03
2016-07-20T00:05:10.903Z,14.02
2016-07-20T00:06:10.882Z,13.94
2016-07-20T00:07:10.879Z,14.01
2016-07-20T00:08:10.839Z,14.01
2016-07-20T00:09:10.722Z,14.01
2016-07-20T00:10:10.737Z,14.09
2016-07-20T00:11:10.849Z,13.94
2016-07-20T00:12:10.840Z,13.95
2016-07-20T00:13:10.847Z,13.94
2016-07-20T00:14:10.763Z,13.95
2016-07-20T00:15:10.722Z,13.93
2016-07-20T00:16:10.853Z,14.01
2016-07-20T00:17:10.736Z,13.95
2016-07-20T00:18:10.728Z,13.97
2016-07-20T00:19:10.725Z,13.93
2016-07-20T00:20:10.747Z,13.91
2016-07-20T00:21:10.833Z,13.86
2016-07-20T00:22:10.950Z,13.95
2016-07-20T00:23:10.720Z,13.84
2016-07-20T00:24:10.711Z,13.84
2016-07-20T00:25:10.719Z,13.83
2016-07-20T00:26:10.720Z,13.78
2016-07-20T00:27:10.719Z,13.79
2016-07-20T00:28:10.719Z,13.79
2016-07-20T00:29:10.698Z,13.73
2016-07-20T00:30:10.694Z,13.73
2016-07-20T00:31:10.693Z,13.69
2016-07-20T00:32:10.740Z,13.72
2016-07-20T00:33:10.700Z,13.7
2016-07-20T00:34:10.696Z,13.69
2016-07-20T00:35:10.694Z,13.72
2016-07-20T00:36:10.730Z,13.81
2016-07-20T00:37:10.694Z,13.78
2016-07-20T00:38:10.683Z,13.83
2016-07-20T00:39:10.533Z,13.84
2016-07-20T00:40:10.540Z,13.91
2016-07-20T00:41:10.548Z,13.94
2016-07-20T00:42:10.537Z,13.93
2016-07-20T00:43:10.532Z,13.93
2016-07-20T00:44:10.697Z,13.87
2016-07-20T00:45:10.547Z,13.93
2016-07-20T00:46:10.893Z,13.9
2016-07-20T00:47:10.725Z,13.86
2016-07-20T00:48:10.695Z,13.87
2016-07-20T00:49:10.523Z,13.88
2016-07-20T00:50:10.514Z,13.88
2016-07-20T00:51:10.696Z,13.88
2016-07-20T00:52:10.530Z,13.86
2016-07-20T00:53:10.520Z,13.84
2016-07-20T00:54:10.501Z,13.84
2016-07-20T00:55:10.506Z,13.86
2016-07-20T00:56:10.562Z,13.88
2016-07-20T00:57:10.536Z,13.88
2016-07-20T00:58:10.528Z,13.83
2016-07-20T00:59:10.511Z,13.79
2016-07-20T01:00:10.523Z,13.76
2016-07-20T01:01:10.508Z,13.72
2016-07-20T01:02:10.844Z,13.72
2016-07-20T01:03:10.401Z,13.75
2016-07-20T01:04:10.517Z,13.72
2016-07-20T01:05:11.099Z,13.7
2016-07-20T01:06:10.382Z,13.65
2016-07-20T01:07:10.359Z,13.69
2016-07-20T01:08:10.331Z,13.7
2016-07-20T01:09:10.313Z,13.7
2016-07-20T01:10:10.368Z,13.7
2016-07-20T01:11:10.660Z,13.69
2016-07-20T01:12:10.345Z,13.75
2016-07-20T01:13:10.291Z,13.72
2016-07-20T01:14:10.293Z,13.63
2016-07-20T01:15:10.324Z,13.62
2016-07-20T01:16:10.314Z,13.72
2016-07-20T01:17:10.290Z,13.6
2016-07-20T01:18:10.274Z,13.69
2016-07-20T01:19:10.269Z,13.69
2016-07-20T01:20:10.320Z,13.6
2016-07-20T01:21:10.300Z,13.65
2016-07-20T01:22:10.531Z,13.66
2016-07-20T01:23:10.254Z,13.65
2016-07-20T01:24:10.276Z,13.62
2016-07-20T01:25:10.247Z,13.55
2016-07-20T01:26:10.241Z,13.54
2016-07-20T01:27:10.267Z,13.53
2016-07-20T01:28:10.294Z,13.53
2016-07-20T01:29:10.278Z,13.54
2016-07-20T01:30:10.230Z,13.54
2016-07-20T01:31:10.228Z,13.47
2016-07-20T01:32:10.252Z,13.55
2016-07-20T01:33:10.215Z,13.45
2016-07-20T01:34:10.209Z,13.4
2016-07-20T01:35:10.212Z,13.5
2016-07-20T01:36:10.197Z,13.5
2016-07-20T01:37:10.190Z,13.37
2016-07-20T01:38:10.182Z,13.44
2016-07-20T01:39:10.192Z,13.37
2016-07-20T01:40:10.180Z,13.4
2016-07-20T01:41:10.174Z,13.37
2016-07-20T01:42:10.170Z,13.31
2016-07-20T01:43:10.163Z,13.28
2016-07-20T01:44:10.154Z,13.31
2016-07-20T01:45:10.161Z,13.37
2016-07-20T01:46:10.251Z,13.28
2016-07-20T01:47:10.178Z,13.27
2016-07-20T01:48:10.148Z,13.35
2016-07-20T01:49:10.646Z,13.25
2016-07-20T01:50:10.153Z,13.29
2016-07-20T01:51:11.092Z,13.28
2016-07-20T01:52:10.946Z,13.25
2016-07-20T01:53:10.217Z,13.19
2016-07-20T01:54:10.114Z,13.28
2016-07-20T01:55:10.935Z,13.16
2016-07-20T01:56:10.143Z,13.17
2016-07-20T01:57:10.168Z,13.29
2016-07-20T01:58:10.154Z,13.17
2016-07-20T01:59:10.146Z,13.19
2016-07-20T02:00:10.120Z,13.19
2016-07-20T02:01:10.136Z,13.27
2016-07-20T02:02:10.154Z,13.24
2016-07-20T02:03:10.109Z,13.31
2016-07-20T02:04:10.148Z,13.32
2016-07-20T02:05:10.136Z,13.32
2016-07-20T02:06:10.063Z,13.32
2016-07-20T02:07:10.120Z,13.29
2016-07-20T02:08:10.117Z,13.36
2016-07-20T02:09:10.059Z,13.27
2016-07-20T02:10:10.041Z,13.29
2016-07-20T02:11:10.101Z,13.29
2016-07-20T02:12:10.060Z,13.27
2016-07-20T02:13:10.036Z,13.21
2016-07-20T02:14:10.033Z,13.21
2016-07-20T02:15:10.063Z,13.21
2016-07-20T02:16:10.097Z,13.17
2016-07-20T02:17:10.039Z,13.17
2016-07-20T02:18:10.081Z,13.19
2016-07-20T02:19:11.014Z,13.14
2016-07-20T02:20:10.062Z,13.13
2016-07-20T02:21:10.021Z,13.1
2016-07-20T02:22:10.210Z,13.11
2016-07-20T02:23:09.992Z,13.13
2016-07-20T02:24:09.985Z,13.11
2016-07-20T02:25:09.974Z,13.24
2016-07-20T02:26:09.967Z,13.25
2016-07-20T02:27:09.950Z,13.24
2016-07-20T02:28:10.770Z,13.24
2016-07-20T02:29:10.773Z,13.21
2016-07-20T02:30:09.984Z,13.21
2016-07-20T02:31:09.941Z,13.28
2016-07-20T02:32:09.953Z,13.37
2016-07-20T02:33:09.985Z,13.32
2016-07-20T02:34:09.927Z,13.31
2016-07-20T02:35:10.415Z,13.29
2016-07-20T02:36:09.905Z,13.31
2016-07-20T02:37:09.919Z,13.29
2016-07-20T02:38:09.912Z,13.25
2016-07-20T02:39:09.911Z,13.36
2016-07-20T02:40:09.933Z,13.29
2016-07-20T02:41:10.964Z,13.29
2016-07-20T02:42:09.923Z,13.37
2016-07-20T02:43:09.890Z,13.28
2016-07-20T02:44:09.868Z,13.27
2016-07-20T02:45:09.869Z,13.28
2016-07-20T02:46:09.864Z,13.31
2016-07-20T02:47:09.866Z,13.27
2016-07-20T02:48:09.884Z,13.17
2016-07-20T02:49:09.926Z,13.21
2016-07-20T02:50:10.841Z,13.24
2016-07-20T02:51:09.895Z,13.21
2016-07-20T02:52:09.908Z,13.11
2016-07-20T02:53:09.829Z,13.14
2016-07-20T02:54:09.955Z,13.06
2016-07-20T02:55:09.827Z,12.95
2016-07-20T02:56:09.834Z,12.92
2016-07-20T02:57:09.823Z,12.92
2016-07-20T02:58:09.826Z,12.94
2016-07-20T02:59:10.759Z,12.95
2016-07-20T03:00:09.798Z,12.94
2016-07-20T03:01:10.076Z,12.94
2016-07-20T03:02:09.774Z,12.95
2016-07-20T03:03:09.781Z,12.88
2016-07-20T03:04:10.145Z,12.92
2016-07-20T03:05:09.783Z,12.92
2016-07-20T03:06:09.764Z,12.89
2016-07-20T03:07:09.745Z,12.95
2016-07-20T03:08:09.758Z,12.89
2016-07-20T03:09:09.852Z,12.94
2016-07-20T03:10:09.735Z,12.89
2016-07-20T03:11:09.736Z,12.83
2016-07-20T03:12:09.884Z,12.88
2016-07-20T03:13:09.848Z,12.91
2016-07-20T03:14:09.903Z,12.91
2016-07-20T03:15:09.743Z,12.91
2016-07-20T03:16:09.799Z,12.88
2016-07-20T03:17:09.824Z,12.88
2016-07-20T03:18:09.795Z,12.91
2016-07-20T03:19:09.820Z,12.88
2016-07-20T03:20:09.828Z,12.83
2016-07-20T03:21:09.851Z,12.86
2016-07-20T03:22:09.763Z,12.89
2016-07-20T03:23:09.688Z,12.91
2016-07-20T03:24:09.668Z,12.84
2016-07-20T03:25:09.672Z,12.91
2016-07-20T03:26:09.652Z,12.89
2016-07-20T03:27:09.663Z,12.84
2016-07-20T03:28:09.662Z,12.89
2016-07-20T03:29:09.659Z,12.88
2016-07-20T03:30:09.695Z,12.86
2016-07-20T03:31:09.662Z,12.88
2016-07-20T03:32:09.631Z,12.86
2016-07-20T03:33:09.624Z,12.86
2016-07-20T03:34:09.713Z,12.84
2016-07-20T03:35:09.702Z,12.8
2016-07-20T03:36:09.740Z,12.91
2016-07-20T03:37:09.613Z,12.83
2016-07-20T03:38:09.591Z,12.88
2016-07-20T03:39:09.596Z,12.92
2016-07-20T03:40:11.734Z,12.89
2016-07-20T03:41:09.700Z,12.91
2016-07-20T03:42:10.689Z,12.95
2016-07-20T03:43:09.560Z,12.98
2016-07-20T03:44:09.568Z,12.96
2016-07-20T03:45:09.688Z,13.01
2016-07-20T03:46:09.657Z,12.94
2016-07-20T03:47:09.562Z,12.95
2016-07-20T03:48:09.558Z,12.94
2016-07-20T03:49:09.543Z,12.96
2016-07-20T03:50:09.541Z,12.95
2016-07-20T03:51:09.519Z,12.94
2016-07-20T03:52:09.542Z,12.92
2016-07-20T03:53:11.529Z,12.92
2016-07-20T03:54:09.548Z,12.95
2016-07-20T03:55:09.527Z,12.95
2016-07-20T03:56:09.530Z,13.07
2016-07-20T03:57:09.505Z,13.11
2016-07-20T03:58:09.508Z,13.11
2016-07-20T03:59:09.503Z,13.09
2016-07-20T04:00:09.490Z,13.11
2016-07-20T04:01:09.476Z,13.09
2016-07-20T04:02:09.467Z,13.24
2016-07-20T04:03:09.493Z,13.16
2016-07-20T04:04:09.474Z,13.16
2016-07-20T04:05:09.477Z,13.25
2016-07-20T04:06:09.461Z,13.21
2016-07-20T04:07:09.461Z,13.2
2016-07-20T04:08:09.450Z,13.21
2016-07-20T04:09:09.450Z,13.21
2016-07-20T04:10:09.560Z,13.16
2016-07-20T04:11:09.621Z,13.25
2016-07-20T04:12:09.435Z,13.21
2016-07-20T04:13:11.384Z,13.24
2016-07-20T04:14:09.410Z,13.21
2016-07-20T04:15:09.422Z,13.17
2016-07-20T04:16:09.429Z,13.24
2016-07-20T04:17:09.402Z,13.25
2016-07-20T04:18:09.422Z,13.27
2016-07-20T04:19:09.403Z,13.24
2016-07-20T04:20:09.423Z,13.24
2016-07-20T04:21:09.495Z,13.35
2016-07-20T04:22:09.443Z,13.31
2016-07-20T04:23:10.711Z,13.27
2016-07-20T04:24:09.454Z,13.31
2016-07-20T04:25:09.540Z,13.28
2016-07-20T04:26:09.375Z,13.28
2016-07-20T04:27:09.377Z,13.39
2016-07-20T04:28:09.386Z,13.37
2016-07-20T04:29:09.621Z,13.36
2016-07-20T04:30:09.361Z,13.4
2016-07-20T04:31:09.353Z,13.48
2016-07-20T04:32:10.388Z,13.4
2016-07-20T04:33:09.400Z,13.39
2016-07-20T04:34:09.461Z,13.47
2016-07-20T04:35:09.417Z,13.47
2016-07-20T04:36:09.453Z,13.54
2016-07-20T04:37:09.337Z,13.54
2016-07-20T04:38:09.312Z,13.48
2016-07-20T04:39:09.430Z,13.57
2016-07-20T04:40:09.427Z,13.53
2016-07-20T04:41:09.384Z,13.54
2016-07-20T04:42:09.641Z,13.65
2016-07-20T04:43:10.525Z,13.62
2016-07-20T04:44:09.389Z,13.69
2016-07-20T04:45:10.129Z,13.66
2016-07-20T04:46:09.309Z,13.68
2016-07-20T04:47:09.373Z,13.68
2016-07-20T04:48:09.425Z,13.83
2016-07-20T04:49:10.489Z,13.86
2016-07-20T04:50:10.606Z,13.94
2016-07-20T04:51:09.264Z,13.91
2016-07-20T04:52:09.330Z,14.01
2016-07-20T04:53:10.063Z,14.01
2016-07-20T04:54:09.580Z,14.06
2016-07-20T04:55:09.372Z,14.11
2016-07-20T04:56:09.438Z,14.13
2016-07-20T04:57:10.089Z,14.21
2016-07-20T04:58:10.079Z,14.2
2016-07-20T04:59:09.308Z,14.28
2016-07-20T05:00:09.204Z,14.31
2016-07-20T05:01:09.215Z,14.3
2016-07-20T05:02:09.221Z,14.42
2016-07-20T05:03:09.894Z,14.45
2016-07-20T05:04:09.380Z,14.42
2016-07-20T05:05:09.308Z,14.45
2016-07-20T05:06:09.285Z,14.49
2016-07-20T05:07:09.201Z,14.53
2016-07-20T05:08:09.188Z,14.63
2016-07-20T05:09:09.187Z,14.66
2016-07-20T05:10:09.178Z,14.63
2016-07-20T05:11:09.168Z,14.66
2016-07-20T05:12:09.208Z,14.71
2016-07-20T05:13:09.418Z,14.89
2016-07-20T05:14:09.284Z,14.85
2016-07-20T05:15:09.212Z,14.87
2016-07-20T05:16:09.249Z,14.85
2016-07-20T05:17:09.262Z,14.93
2016-07-20T05:18:10.917Z,15
2016-07-20T05:19:09.145Z,15.01
2016-07-20T05:20:09.138Z,15
2016-07-20T05:21:09.136Z,15.05
2016-07-20T05:22:09.207Z,15.04
2016-07-20T05:23:09.228Z,15.05
2016-07-20T05:24:09.218Z,15.16
2016-07-20T05:25:09.127Z,15.25
2016-07-20T05:26:09.121Z,15.22
2016-07-20T05:27:09.192Z,15.22
2016-07-20T05:28:09.219Z,15.2
2016-07-20T05:29:09.103Z,15.3
2016-07-20T05:30:09.104Z,15.33
2016-07-20T05:31:09.089Z,15.37
2016-07-20T05:32:09.398Z,15.3
2016-07-20T05:33:09.203Z,15.31
2016-07-20T05:34:09.179Z,15.35
2016-07-20T05:35:09.183Z,15.44
2016-07-20T05:36:09.181Z,15.43
2016-07-20T05:37:09.140Z,15.49
2016-07-20T05:38:09.142Z,15.47
2016-07-20T05:39:09.912Z,15.53
2016-07-20T05:40:09.138Z,15.58
2016-07-20T05:41:09.070Z,15.63
2016-07-20T05:42:09.068Z,15.65
2016-07-20T05:43:09.154Z,15.6
2016-07-20T05:44:09.116Z,15.67
2016-07-20T05:45:09.098Z,15.73
2016-07-20T05:46:09.133Z,15.75
2016-07-20T05:47:09.200Z,15.73
2016-07-20T05:48:09.862Z,15.75
2016-07-20T05:49:09.106Z,15.88
2016-07-20T05:50:09.213Z,15.86
2016-07-20T05:51:09.110Z,15.86
2016-07-20T05:52:09.088Z,15.92
2016-07-20T05:53:09.091Z,15.91
2016-07-20T05:54:09.315Z,16.06
2016-07-20T05:55:09.145Z,16.1
2016-07-20T05:56:09.315Z,16.17
2016-07-20T05:57:09.009Z,16.16
2016-07-20T05:58:09.012Z,16.22
2016-07-20T05:59:09.009Z,16.14
2016-07-20T06:00:09.090Z,16.27
2016-07-20T06:01:09.084Z,16.25
2016-07-20T06:02:09.065Z,16.25
2016-07-20T06:03:09.316Z,16.33
2016-07-20T06:04:08.994Z,16.3
2016-07-20T06:05:08.990Z,16.27
2016-07-20T06:06:08.985Z,16.33
2016-07-20T06:07:08.983Z,16.42
2016-07-20T06:08:09.038Z,16.52
2016-07-20T06:09:09.046Z,16.48
2016-07-20T06:10:09.022Z,16.58
2016-07-20T06:11:09.046Z,16.62
2016-07-20T06:12:08.989Z,16.67
2016-07-20T06:13:08.960Z,16.69
2016-07-20T06:14:08.962Z,16.73
2016-07-20T06:15:09.057Z,16.7
2016-07-20T06:16:09.024Z,16.74
2016-07-20T06:17:09.792Z,16.72
2016-07-20T06:18:08.958Z,16.8
2016-07-20T06:19:08.956Z,16.72
2016-07-20T06:20:08.959Z,16.9
2016-07-20T06:21:09.081Z,16.88
2016-07-20T06:22:08.933Z,16.97
2016-07-20T06:23:08.937Z,17.02
2016-07-20T06:24:09.036Z,16.9
2016-07-20T06:25:09.068Z,16.94
2016-07-20T06:26:09.007Z,17.07
2016-07-20T06:27:09.009Z,17
2016-07-20T06:28:09.041Z,17.1
2016-07-20T06:29:08.930Z,17.12
2016-07-20T06:30:08.922Z,17.12
2016-07-20T06:31:08.941Z,17.13
2016-07-20T06:32:08.986Z,17.2
2016-07-20T06:33:08.920Z,17.22
2016-07-20T06:34:08.916Z,17.25
2016-07-20T06:35:08.984Z,17.22
2016-07-20T06:36:09.017Z,17.3
2016-07-20T06:37:10.008Z,17.38
2016-07-20T06:38:09.754Z,17.47
2016-07-20T06:39:08.957Z,17.49
2016-07-20T06:40:09.939Z,17.71
2016-07-20T06:41:08.897Z,17.79
2016-07-20T06:42:08.903Z,17.87
2016-07-20T06:43:08.886Z,17.96
2016-07-20T06:44:08.913Z,17.95
2016-07-20T06:45:08.889Z,18.05
2016-07-20T06:46:09.968Z,18.03
2016-07-20T06:47:08.952Z,18.19
2016-07-20T06:48:08.939Z,18.19
2016-07-20T06:49:08.956Z,18.2
2016-07-20T06:50:08.875Z,18.23
2016-07-20T06:51:08.878Z,18.24
2016-07-20T06:52:08.875Z,18.5
2016-07-20T06:53:08.878Z,18.82
2016-07-20T06:54:08.891Z,19.1
2016-07-20T06:55:08.881Z,19.4
2016-07-20T06:56:08.887Z,19.95
2016-07-20T06:57:08.869Z,20.48
2016-07-20T06:58:08.884Z,21.25
2016-07-20T06:59:08.971Z,22.2
2016-07-20T07:00:09.624Z,22.88
2016-07-20T07:01:09.179Z,23.55
2016-07-20T07:02:08.871Z,24.3
2016-07-20T07:03:09.216Z,25.15
2016-07-20T07:04:08.977Z,26.11
2016-07-20T07:05:08.880Z,26.97
2016-07-20T07:06:08.880Z,27.89
2016-07-20T07:07:09.924Z,28.8
2016-07-20T07:08:08.971Z,29.69
2016-07-20T07:09:09.032Z,30.39
2016-07-20T07:10:09.804Z,31.08
2016-07-20T07:11:08.956Z,31.77
2016-07-20T07:12:08.890Z,32.13
2016-07-20T07:13:08.899Z,32.74
2016-07-20T07:14:08.993Z,33.03
2016-07-20T07:15:08.909Z,33.5
2016-07-20T07:16:08.921Z,33.84
2016-07-20T07:17:09.033Z,33.99
2016-07-20T07:18:09.753Z,34.33
2016-07-20T07:19:08.954Z,34.45
2016-07-20T07:20:08.951Z,34.64
2016-07-20T07:21:09.051Z,34.66
2016-07-20T07:22:09.967Z,34.91
2016-07-20T07:23:09.010Z,35.02
2016-07-20T07:24:09.038Z,35.4
2016-07-20T07:25:09.031Z,35.67
2016-07-20T07:26:09.044Z,35.76
2016-07-20T07:27:09.063Z,35.82
2016-07-20T07:28:09.077Z,35.99
2016-07-20T07:29:09.096Z,36.19
2016-07-20T07:30:09.105Z,36.22
2016-07-20T07:31:09.029Z,36.37
2016-07-20T07:32:09.046Z,36.47
2016-07-20T07:33:09.127Z,36.84
2016-07-20T07:34:09.136Z,36.78
2016-07-20T07:35:09.067Z,36.9
2016-07-20T07:36:09.214Z,37.04
2016-07-20T07:37:09.189Z,37.26
2016-07-20T07:38:09.160Z,37.29
2016-07-20T07:39:09.178Z,37.48
2016-07-20T07:40:09.202Z,37.59
2016-07-20T07:41:09.135Z,37.81
2016-07-20T07:42:09.160Z,37.81
2016-07-20T07:43:09.964Z,38.02
2016-07-20T07:44:09.156Z,38.28
2016-07-20T07:45:09.175Z,38.4
2016-07-20T07:46:09.183Z,38.47
2016-07-20T07:47:09.198Z,38.46
2016-07-20T07:48:09.195Z,38.31
2016-07-20T07:49:09.473Z,38.24
2016-07-20T07:50:09.313Z,37.99
2016-07-20T07:51:09.241Z,37.79
2016-07-20T07:52:09.329Z,37.24
2016-07-20T07:53:09.321Z,36.96
2016-07-20T07:54:09.275Z,36.7
2016-07-20T07:55:09.285Z,36.51
2016-07-20T07:56:09.301Z,35.96
2016-07-20T07:57:09.316Z,35.77
2016-07-20T07:58:09.342Z,35.87
2016-07-20T07:59:09.346Z,36.14
2016-07-20T08:00:09.449Z,36.25
2016-07-20T08:01:09.458Z,36.26
2016-07-20T08:02:09.445Z,36.21
2016-07-20T08:03:09.396Z,36.25
2016-07-20T08:04:09.424Z,36.34
2016-07-20T08:05:09.432Z,36.43
2016-07-20T08:06:09.433Z,36.37
2016-07-20T08:07:09.441Z,36.46
2016-07-20T08:08:09.748Z,36.19
2016-07-20T08:09:09.565Z,36.21
2016-07-20T08:10:09.464Z,36.33
2016-07-20T08:11:09.512Z,36.44
2016-07-20T08:12:09.578Z,36.24
2016-07-20T08:13:09.554Z,35.86
2016-07-20T08:14:09.638Z,35.28
2016-07-20T08:15:09.533Z,35.2
2016-07-20T08:16:09.534Z,35.24
2016-07-20T08:17:09.594Z,35.35
2016-07-20T08:18:09.702Z,35.21
2016-07-20T08:19:09.643Z,34.9
2016-07-20T08:20:09.600Z,34.63
2016-07-20T08:21:09.597Z,34.54
2016-07-20T08:22:09.744Z,34.22
2016-07-20T08:23:09.645Z,34.08
2016-07-20T08:24:09.684Z,33.68
2016-07-20T08:25:09.642Z,33.16
2016-07-20T08:26:09.627Z,32.42
2016-07-20T08:27:09.654Z,31.77
2016-07-20T08:28:09.669Z,31.26
2016-07-20T08:29:09.727Z,30.94
2016-07-20T08:30:10.574Z,30.63
2016-07-20T08:31:09.736Z,30.35
2016-07-20T08:32:10.740Z,29.97
2016-07-20T08:33:09.759Z,29.38
2016-07-20T08:34:09.769Z,28.97
2016-07-20T08:35:10.500Z,28.65
2016-07-20T08:36:09.727Z,28.38
2016-07-20T08:37:10.601Z,28.12
2016-07-20T08:38:09.791Z,28.02
2016-07-20T08:39:09.884Z,27.99
2016-07-20T08:40:09.789Z,27.84
2016-07-20T08:41:10.620Z,27.86
2016-07-20T08:42:10.276Z,27.9
2016-07-20T08:43:09.755Z,27.8
2016-07-20T08:44:09.820Z,27.71
2016-07-20T08:45:10.769Z,27.65
2016-07-20T08:46:09.763Z,27.53
2016-07-20T08:47:09.824Z,27.41
2016-07-20T08:48:09.779Z,27.37
2016-07-20T08:49:09.776Z,27.24
2016-07-20T08:50:09.809Z,27.08
2016-07-20T08:51:09.794Z,27.05
2016-07-20T08:52:09.802Z,27.12
2016-07-20T08:53:09.936Z,27.15
2016-07-20T08:54:09.945Z,27.09
2016-07-20T08:55:09.806Z,27.18
2016-07-20T08:56:09.819Z,27.26
2016-07-20T08:57:09.827Z,27.21
2016-07-20T08:58:09.837Z,27.13
2016-07-20T08:59:09.832Z,27.11
2016-07-20T09:00:09.844Z,27.01
2016-07-20T09:01:09.932Z,26.89
2016-07-20T09:02:10.093Z,26.76
2016-07-20T09:03:09.846Z,26.82
2016-07-20T09:04:09.858Z,26.75
2016-07-20T09:05:09.853Z,26.75
2016-07-20T09:06:09.871Z,26.79
2016-07-20T09:07:09.881Z,26.84
2016-07-20T09:08:09.880Z,26.87
2016-07-20T09:09:09.872Z,26.97
2016-07-20T09:10:09.890Z,26.96
2016-07-20T09:11:09.878Z,26.96
2016-07-20T09:12:09.892Z,27.08
2016-07-20T09:13:09.900Z,27.12
2016-07-20T09:14:09.889Z,27.34
2016-07-20T09:15:09.892Z,27.34
2016-07-20T09:16:09.900Z,27.37
2016-07-20T09:17:10.071Z,27.24
2016-07-20T09:18:09.905Z,27.34
2016-07-20T09:19:09.925Z,27.37
2016-07-20T09:20:10.733Z,27.34
2016-07-20T09:21:10.055Z,27.33
2016-07-20T09:22:10.088Z,27.31
2016-07-20T09:23:11.714Z,27.23
2016-07-20T09:24:10.097Z,27.26
2016-07-20T09:25:10.251Z,27.26
2016-07-20T09:26:10.114Z,27.27
2016-07-20T09:27:10.965Z,27.26
2016-07-20T09:28:10.829Z,27.31
2016-07-20T09:29:10.693Z,27.27
2016-07-20T09:30:10.252Z,27.19
2016-07-20T09:31:10.302Z,27.26
2016-07-20T09:32:10.255Z,27.24
2016-07-20T09:33:10.230Z,27.18
2016-07-20T09:34:10.215Z,27.28
2016-07-20T09:35:10.208Z,27.16
2016-07-20T09:36:10.697Z,27.18
2016-07-20T09:37:11.008Z,27.11
2016-07-20T09:38:10.222Z,27.09
2016-07-20T09:39:10.226Z,27.01
2016-07-20T09:40:10.224Z,26.79
2016-07-20T09:41:10.245Z,26.61
2016-07-20T09:42:10.268Z,26.53
2016-07-20T09:43:10.394Z,26.45
2016-07-20T09:44:10.351Z,26.38
2016-07-20T09:45:10.408Z,26.39
2016-07-20T09:46:10.383Z,26.26
2016-07-20T09:47:10.811Z,26.04
2016-07-20T09:48:10.330Z,26.04
2016-07-20T09:49:10.213Z,26.03
2016-07-20T09:50:10.321Z,26.19
2016-07-20T09:51:10.350Z,26.03
2016-07-20T09:52:10.390Z,26.12
2016-07-20T09:53:10.356Z,26.17
2016-07-20T09:54:10.358Z,26.31
2016-07-20T09:55:10.360Z,26.41
2016-07-20T09:56:10.362Z,26.5
2016-07-20T09:57:10.360Z,26.64
2016-07-20T09:58:10.263Z,26.71
2016-07-20T09:59:10.366Z,26.74
2016-07-20T10:00:10.377Z,26.67
2016-07-20T10:01:10.382Z,26.63
2016-07-20T10:02:10.351Z,26.72
2016-07-20T10:03:10.411Z,26.63
2016-07-20T10:04:11.137Z,26.76
2016-07-20T10:05:10.435Z,26.75
2016-07-20T10:06:10.689Z,26.93
2016-07-20T10:07:10.448Z,27.01
2016-07-20T10:08:10.437Z,27.09
2016-07-20T10:09:10.431Z,27.28
2016-07-20T10:10:11.115Z,27.19
2016-07-20T10:11:10.453Z,27.26
2016-07-20T10:12:10.320Z,27.24
2016-07-20T10:13:10.367Z,27.05
2016-07-20T10:14:10.364Z,26.76
2016-07-20T10:15:10.386Z,26.56
2016-07-20T10:16:10.390Z,26.41
2016-07-20T10:17:10.387Z,26.3
2016-07-20T10:18:10.400Z,25.99
2016-07-20T10:19:10.402Z,25.67
2016-07-20T10:20:10.881Z,25.66
2016-07-20T10:21:10.506Z,25.69
2016-07-20T10:22:10.422Z,25.69
2016-07-20T10:23:10.466Z,25.54
2016-07-20T10:24:10.452Z,25.62
2016-07-20T10:25:11.240Z,25.64
2016-07-20T10:26:10.405Z,25.85
2016-07-20T10:27:10.398Z,26.01
2016-07-20T10:28:11.019Z,26
2016-07-20T10:29:10.419Z,25.99
2016-07-20T10:30:10.381Z,26.04
2016-07-20T10:31:10.389Z,26.2
2016-07-20T10:32:10.467Z,26.32
2016-07-20T10:33:10.411Z,26.3
2016-07-20T10:34:10.389Z,26.41
2016-07-20T10:35:10.473Z,26.44
2016-07-20T10:36:10.430Z,26.49
2016-07-20T10:37:10.409Z,26.59
2016-07-20T10:38:10.395Z,26.63
2016-07-20T10:39:10.401Z,26.71
2016-07-20T10:40:10.400Z,26.69
2016-07-20T10:41:10.410Z,26.75
2016-07-20T10:42:10.414Z,26.63
2016-07-20T10:43:10.478Z,26.45
2016-07-20T10:44:10.469Z,26.49
2016-07-20T10:45:10.510Z,26.44
2016-07-20T10:46:10.492Z,26.5
2016-07-20T10:47:10.735Z,26.6
2016-07-20T10:48:10.461Z,26.71
2016-07-20T10:49:10.407Z,26.71
2016-07-20T10:50:10.370Z,26.68
2016-07-20T10:51:10.390Z,26.76
2016-07-20T10:52:10.406Z,26.75
2016-07-20T10:53:10.413Z,26.84
2016-07-20T10:54:10.477Z,26.91
2016-07-20T10:55:11.178Z,26.87
2016-07-20T10:56:10.463Z,26.86
2016-07-20T10:57:10.454Z,26.82
2016-07-20T10:58:10.589Z,26.78
2016-07-20T10:59:11.136Z,26.63
2016-07-20T11:00:11.435Z,26.6
2016-07-20T11:01:10.488Z,26.49
2016-07-20T11:02:11.440Z,26.47
2016-07-20T11:03:10.472Z,26.16
2016-07-20T11:04:10.435Z,26.09
2016-07-20T11:05:10.508Z,25.96
2016-07-20T11:06:10.452Z,25.84
2016-07-20T11:07:10.446Z,25.85
2016-07-20T11:08:10.489Z,25.89
2016-07-20T11:09:10.528Z,25.84
2016-07-20T11:10:10.490Z,25.86
2016-07-20T11:11:10.680Z,25.78
2016-07-20T11:12:10.488Z,25.96
2016-07-20T11:13:10.499Z,25.88
2016-07-20T11:14:10.483Z,25.91
2016-07-20T11:15:10.445Z,25.93
2016-07-20T11:16:10.523Z,25.91
2016-07-20T11:17:10.448Z,25.86
2016-07-20T11:18:10.506Z,25.76
2016-07-20T11:19:10.457Z,25.91
2016-07-20T11:20:10.522Z,25.88
2016-07-20T11:21:10.555Z,26.07
2016-07-20T11:22:10.980Z,26.15
2016-07-20T11:23:10.453Z,26.07
2016-07-20T11:24:10.464Z,26.15
2016-07-20T11:25:10.779Z,26.15
2016-07-20T11:26:10.500Z,26.23
2016-07-20T11:27:10.459Z,26.24
2016-07-20T11:28:10.503Z,26.2
2016-07-20T11:29:10.611Z,26.24
2016-07-20T11:30:10.476Z,26.2
2016-07-20T11:31:10.494Z,26.27
2016-07-20T11:32:10.482Z,26.19
2016-07-20T11:33:11.584Z,26.26
2016-07-20T11:34:10.788Z,26.3
2016-07-20T11:35:11.314Z,26.34
2016-07-20T11:36:10.536Z,26.38
2016-07-20T11:37:10.544Z,26.35
2016-07-20T11:38:11.140Z,26.3
2016-07-20T11:39:10.538Z,26.37
2016-07-20T11:40:10.579Z,26.31
2016-07-20T11:41:10.515Z,26.3
2016-07-20T11:42:10.519Z,26.16
2016-07-20T11:43:10.506Z,26.07
2016-07-20T11:44:10.540Z,25.99
2016-07-20T11:45:10.530Z,25.96
2016-07-20T11:46:10.540Z,25.96
2016-07-20T11:47:10.589Z,25.97
2016-07-20T11:48:11.337Z,26
2016-07-20T11:49:12.299Z,25.89
2016-07-20T11:50:10.580Z,25.93
2016-07-20T11:51:10.546Z,26.04
2016-07-20T11:52:10.541Z,26.06
2016-07-20T11:53:10.557Z,26.04
2016-07-20T11:54:10.559Z,26.06
2016-07-20T11:55:11.383Z,26.04
2016-07-20T11:56:10.633Z,26.07
2016-07-20T11:57:10.642Z,26.01
2016-07-20T11:58:11.685Z,26.12
2016-07-20T11:59:10.853Z,26.03
2016-07-20T12:00:10.672Z,26.03
2016-07-20T12:01:10.691Z,26.09
2016-07-20T12:02:10.607Z,26.04
2016-07-20T12:03:10.607Z,25.94
2016-07-20T12:04:10.623Z,25.96
2016-07-20T12:05:10.606Z,26
2016-07-20T12:06:10.624Z,26.04
2016-07-20T12:07:10.617Z,26.04
2016-07-20T12:08:10.610Z,26.03
2016-07-20T12:09:11.495Z,26.06
2016-07-20T12:10:10.697Z,26.06
2016-07-20T12:11:10.662Z,26.07
2016-07-20T12:12:10.751Z,26.03
2016-07-20T12:13:10.744Z,26.09
2016-07-20T12:14:11.449Z,26.17
2016-07-20T12:15:10.643Z,26.16
2016-07-20T12:16:10.648Z,26.2
2016-07-20T12:17:10.726Z,26.16
2016-07-20T12:18:10.975Z,26.16
2016-07-20T12:19:10.649Z,26.19
2016-07-20T12:20:10.676Z,26.12
2016-07-20T12:21:11.740Z,26.11
2016-07-20T12:22:10.772Z,26.19
2016-07-20T12:23:10.733Z,26.12
2016-07-20T12:24:11.931Z,26.24
2016-07-20T12:25:10.752Z,26.2
2016-07-20T12:26:10.741Z,26.11
2016-07-20T12:27:11.529Z,26.15
2016-07-20T12:28:10.772Z,26.16
2016-07-20T12:29:10.702Z,26.17
2016-07-20T12:30:10.727Z,26.3
2016-07-20T12:31:10.795Z,26.32
2016-07-20T12:32:10.832Z,26.27
2016-07-20T12:33:10.717Z,26.26
2016-07-20T12:34:11.429Z,26.19
2016-07-20T12:35:10.814Z,26.34
2016-07-20T12:36:10.722Z,26.31
2016-07-20T12:37:10.734Z,26.31
2016-07-20T12:38:10.751Z,26.31
2016-07-20T12:39:10.741Z,26.3
2016-07-20T12:40:10.749Z,26.27
2016-07-20T12:41:10.749Z,26.27
2016-07-20T12:42:10.769Z,26.12
2016-07-20T12:43:10.768Z,26.17
2016-07-20T12:44:10.751Z,26.26
2016-07-20T12:45:10.763Z,26.27
2016-07-20T12:46:10.764Z,26.22
2016-07-20T12:47:10.817Z,26.27
2016-07-20T12:48:10.880Z,26.31
2016-07-20T12:49:10.783Z,26.3
2016-07-20T12:50:11.793Z,26.26
2016-07-20T12:51:10.794Z,26.3
2016-07-20T12:52:10.793Z,26.31
2016-07-20T12:53:11.818Z,26.38
2016-07-20T12:54:10.797Z,26.35
2016-07-20T12:55:10.806Z,26.39